Time;durP1;ratioP1;P1;durP2;ratioP2;P2;SDS_P1;SDS_P2;PMS_P1;PMS_P2;Temp;Humidity;BMP_temperature;BMP_pressure;BME280_temperature;BME280_humidity;BME280_pressure;Samples;Min_cycle;Max_cycle;Signal;HPM_P1;HPM_P2
2022/07/20 00:00:57;;;;;;;;;;;;;;;;;;2141441;27;20374;-46
2022/07/20 00:01:58;;;;;;;;;;;;;;;;;;2141599;27;19923;-46
2022/07/20 00:02:59;;;;;;;;;;;;;;;;;;2141741;27;20275;-47
2022/07/20 00:03:59;;;;;;;;;;;;;;;;;;2141478;27;19958;-46
2022/07/20 00:05:00;;;;;;;;;;;;;;;;;;2141616;27;19930;-46
2022/07/20 00:06:01;;;;;;;;;;;;;;;;;;2141554;27;19929;-46
2022/07/20 00:07:02;;;;;;;;;;;;;;;;;;2141566;27;20355;-46
2022/07/20 00:08:03;;;;;;;;;;;;;;;;;;2141513;27;19967;-47
2022/07/20 00:11:42;;;;;;;;;;;;;;;;;;2134553;27;20376;-48
2022/07/20 00:12:43;;;;;;;;;;;;;;;;;;2132899;27;20026;-47
2022/07/20 00:13:46;;;;;;;;;;;;;;;;;;2132769;27;19923;-46
2022/07/20 00:14:47;;;;;;;;;;;;;;;;;;2132916;27;19962;-47
2022/07/20 00:15:48;;;;;;;;;;;;;;;;;;2132986;27;20013;-47
2022/07/20 00:16:49;;;;;;;;;;;;;;;;;;2132824;27;20272;-46
2022/07/20 00:17:49;;;;;;;;;;;;;;;;;;2133249;27;19931;-45
2022/07/20 00:18:50;;;;;;;;;;;;;;;;;;2132924;27;20010;-46
2022/07/20 00:19:52;;;;;;;;;;;;;;;;;;2132795;27;19923;-45
2022/07/20 00:20:53;;;;;;;;;;;;;;;;;;2132957;27;19923;-45
2022/07/20 00:21:53;;;;;;;;;;;;;;;;;;2132795;27;19923;-45
2022/07/20 00:22:56;;;;;;;;;;;;;;;;;;2132745;27;19964;-45
2022/07/20 00:23:56;;;;;;;;;;;;;;;;;;2132836;27;19983;-45
2022/07/20 00:24:57;;;;;;;;;;;;;;;;;;2133188;27;20302;-45
2022/07/20 00:25:58;;;;;;;;;;;;;;;;;;2132842;27;20060;-45
2022/07/20 00:26:59;;;;;;;;;;;;;;;;;;2132949;27;19927;-44
2022/07/20 00:28:00;;;;;;;;;;;;;;;;;;2132764;27;20006;-46
2022/07/20 00:29:01;;;;;;;;;;;;;;;;;;2132950;27;20288;-45
2022/07/20 00:30:02;;;;;;;;;;;;;;;;;;2132855;27;20343;-46
2022/07/20 00:31:03;;;;;;;;;;;;;;;;;;2138182;27;19930;-45
2022/07/20 00:32:03;;;;;;;;;;;;;;;;;;2141319;27;19926;-46
2022/07/20 00:33:04;;;;;;;;;;;;;;;;;;2141357;27;20003;-44
2022/07/20 00:34:05;;;;;;;;;;;;;;;;;;2141436;27;19983;-45
2022/07/20 00:35:06;;;;;;;;;;;;;;;;;;2141308;27;19938;-44
2022/07/20 00:36:11;;;;;;;;;;;;;;;;;;2141418;27;19926;-45
2022/07/20 00:37:12;;;;;;;;;;;;;;;;;;2141324;27;20384;-44
2022/07/20 00:38:14;;;;;;;;;;;;;;;;;;2141360;27;19927;-45
2022/07/20 00:39:15;;;;;;;;;;;;;;;;;;2141351;27;20260;-44
2022/07/20 00:40:15;;;;;;;;;;;;;;;;;;2141326;27;19934;-46
2022/07/20 00:41:16;;;;;;;;;;;;;;;;;;2141120;27;19931;-45
2022/07/20 00:42:17;;;;;;;;;;;;;;;;;;2141517;27;19975;-46
2022/07/20 00:43:18;;;;;;;;;;;;;;;;;;2141389;27;19949;-46
2022/07/20 00:44:19;;;;;;;;;;;;;;;;;;2141221;27;20347;-46
2022/07/20 00:45:20;;;;;;;;;;;;;;;;;;2141410;27;20029;-46
2022/07/20 00:46:21;;;;;;;;;;;;;;;;;;2140309;27;20019;-46
2022/07/20 00:47:22;;;;;;;;;;;;;;;;;;2141254;27;20276;-46
2022/07/20 00:48:23;;;;;;;;;;;;;;;;;;2141348;27;20002;-45
2022/07/20 00:49:24;;;;;;;;;;;;;;;;;;2141446;27;19927;-44
2022/07/20 00:50:25;;;;;;;;;;;;;;;;;;2141388;27;19983;-44
2022/07/20 00:51:26;;;;;;;;;;;;;;;;;;2141185;27;19923;-44
2022/07/20 00:52:26;;;;;;;;;;;;;;;;;;2141333;27;19965;-44
2022/07/20 00:53:27;;;;;;;;;;;;;;;;;;2141451;27;19930;-45
2022/07/20 00:54:28;;;;;;;;;;;;;;;;;;2141313;27;20050;-45
2022/07/20 00:55:29;;;;;;;;;;;;;;;;;;2141188;27;19930;-45
2022/07/20 00:56:30;;;;;;;;;;;;;;;;;;2141404;27;19934;-45
2022/07/20 00:57:32;;;;;;;;;;;;;;;;;;2141365;27;19923;-46
2022/07/20 00:58:33;;;;;;;;;;;;;;;;;;2141442;27;19962;-47
2022/07/20 00:59:34;;;;;;;;;;;;;;;;;;2141211;27;19966;-47
2022/07/20 01:00:35;;;;;;;;;;;;;;;;;;2141543;27;20022;-44
2022/07/20 01:01:36;;;;;;;;;;;;;;;;;;2141474;27;19927;-44
2022/07/20 01:02:37;;;;;;;;;;;;;;;;;;2141095;27;19922;-47
2022/07/20 01:03:38;;;;;;;;;;;;;;;;;;2142129;27;20011;-45
2022/07/20 01:04:40;;;;;;;;;;;;;;;;;;2141212;27;19929;-45
2022/07/20 01:05:40;;;;;;;;;;;;;;;;;;2141121;27;20280;-44
2022/07/20 01:06:41;;;;;;;;;;;;;;;;;;2141116;27;19930;-44
2022/07/20 01:07:42;;;;;;;;;;;;;;;;;;2141389;27;20021;-45
2022/07/20 01:08:43;;;;;;;;;;;;;;;;;;2141156;27;20287;-45
2022/07/20 01:09:44;;;;;;;;;;;;;;;;;;2141545;27;19982;-44
2022/07/20 01:10:45;;;;;;;;;;;;;;;;;;2141263;27;19923;-44
2022/07/20 01:11:47;;;;;;;;;;;;;;;;;;2133520;27;20131;-44
2022/07/20 01:12:48;;;;;;;;;;;;;;;;;;2132505;27;20060;-44
2022/07/20 01:13:48;;;;;;;;;;;;;;;;;;2132607;27;20336;-44
2022/07/20 01:14:49;;;;;;;;;;;;;;;;;;2132373;27;19937;-44
2022/07/20 01:15:50;;;;;;;;;;;;;;;;;;2132443;27;20465;-44
2022/07/20 01:16:51;;;;;;;;;;;;;;;;;;2132475;27;19923;-46
2022/07/20 01:17:52;;;;;;;;;;;;;;;;;;2132556;27;20414;-45
2022/07/20 01:18:53;;;;;;;;;;;;;;;;;;2132477;27;19959;-45
2022/07/20 01:19:54;;;;;;;;;;;;;;;;;;2132484;27;19927;-45
2022/07/20 01:20:55;;;;;;;;;;;;;;;;;;2132604;27;20021;-46
2022/07/20 01:21:56;;;;;;;;;;;;;;;;;;2132649;27;19958;-45
2022/07/20 01:22:57;;;;;;;;;;;;;;;;;;2133113;27;19923;-44
2022/07/20 01:23:58;;;;;;;;;;;;;;;;;;2132912;27;20005;-45
2022/07/20 01:24:59;;;;;;;;;;;;;;;;;;2132407;27;20328;-46
2022/07/20 01:26:00;;;;;;;;;;;;;;;;;;2133076;27;20390;-47
2022/07/20 01:27:01;;;;;;;;;;;;;;;;;;2135542;27;19930;-45
2022/07/20 01:28:02;;;;;;;;;;;;;;;;;;2141213;27;19923;-45
2022/07/20 01:29:03;;;;;;;;;;;;;;;;;;2140969;27;19975;-45
2022/07/20 01:30:03;;;;;;;;;;;;;;;;;;2141141;27;19961;-46
2022/07/20 01:31:04;;;;;;;;;;;;;;;;;;2141126;27;19930;-45
2022/07/20 01:32:05;;;;;;;;;;;;;;;;;;2140930;27;20018;-44
2022/07/20 01:33:06;;;;;;;;;;;;;;;;;;2141001;27;20025;-45
2022/07/20 01:34:07;;;;;;;;;;;;;;;;;;2140991;27;20108;-44
2022/07/20 01:35:08;;;;;;;;;;;;;;;;;;2141069;27;19922;-44
2022/07/20 01:36:09;;;;;;;;;;;;;;;;;;2140810;27;20276;-45
2022/07/20 01:37:10;;;;;;;;;;;;;;;;;;2140960;27;19966;-44
2022/07/20 01:38:10;;;;;;;;;;;;;;;;;;2140990;27;19923;-44
2022/07/20 01:39:11;;;;;;;;;;;;;;;;;;2140874;27;20323;-44
2022/07/20 01:40:12;;;;;;;;;;;;;;;;;;2141036;27;19923;-44
2022/07/20 01:41:13;;;;;;;;;;;;;;;;;;2140894;27;20428;-44
2022/07/20 01:42:14;;;;;;;;;;;;;;;;;;2140851;27;20442;-45
2022/07/20 01:43:15;;;;;;;;;;;;;;;;;;2141051;27;19954;-45
2022/07/20 01:44:16;;;;;;;;;;;;;;;;;;2141153;27;19962;-46
2022/07/20 01:45:17;;;;;;;;;;;;;;;;;;2140805;27;20379;-45
2022/07/20 01:46:17;;;;;;;;;;;;;;;;;;2140904;27;19930;-45
2022/07/20 01:47:18;;;;;;;;;;;;;;;;;;2140796;27;20083;-45
2022/07/20 01:48:19;;;;;;;;;;;;;;;;;;2140869;27;20432;-45
2022/07/20 01:49:20;;;;;;;;;;;;;;;;;;2141102;27;19922;-45
2022/07/20 01:50:21;;;;;;;;;;;;;;;;;;2140895;27;20025;-44
2022/07/20 01:51:22;;;;;;;;;;;;;;;;;;2140712;27;19966;-44
2022/07/20 01:52:23;;;;;;;;;;;;;;;;;;2141076;27;19927;-45
2022/07/20 01:53:24;;;;;;;;;;;;;;;;;;2140997;27;20010;-44
2022/07/20 01:54:25;;;;;;;;;;;;;;;;;;2140818;27;19922;-44
2022/07/20 01:55:26;;;;;;;;;;;;;;;;;;2140822;27;19958;-45
2022/07/20 01:56:26;;;;;;;;;;;;;;;;;;2141004;27;19923;-44
2022/07/20 01:57:27;;;;;;;;;;;;;;;;;;2140919;27;20303;-45
2022/07/20 01:58:28;;;;;;;;;;;;;;;;;;2140825;27;19966;-45
2022/07/20 01:59:29;;;;;;;;;;;;;;;;;;2140793;27;20351;-45
2022/07/20 02:00:30;;;;;;;;;;;;;;;;;;2140850;27;19923;-46
2022/07/20 02:01:31;;;;;;;;;;;;;;;;;;2140866;27;19965;-45
2022/07/20 02:02:32;;;;;;;;;;;;;;;;;;2141092;27;19949;-45
2022/07/20 02:03:33;;;;;;;;;;;;;;;;;;2140662;27;19922;-44
2022/07/20 02:04:34;;;;;;;;;;;;;;;;;;2140849;27;20018;-44
2022/07/20 02:05:34;;;;;;;;;;;;;;;;;;2140982;27;19968;-45
2022/07/20 02:06:35;;;;;;;;;;;;;;;;;;2140699;27;20431;-45
2022/07/20 02:07:36;;;;;;;;;;;;;;;;;;2140653;27;19938;-44
2022/07/20 02:08:37;;;;;;;;;;;;;;;;;;2140865;27;20056;-45
2022/07/20 02:09:38;;;;;;;;;;;;;;;;;;2140619;27;20379;-46
2022/07/20 02:10:39;;;;;;;;;;;;;;;;;;2140833;27;19930;-44
2022/07/20 02:11:40;;;;;;;;;;;;;;;;;;2134200;27;19923;-45
2022/07/20 02:12:40;;;;;;;;;;;;;;;;;;2132135;27;19966;-45
2022/07/20 02:13:42;;;;;;;;;;;;;;;;;;2132201;27;20009;-44
2022/07/20 02:14:42;;;;;;;;;;;;;;;;;;2132071;27;19962;-44
2022/07/20 02:17:03;;;;;;;;;;;;;;;;;;2132238;27;19923;-45
2022/07/20 02:18:04;;;;;;;;;;;;;;;;;;2131952;27;20015;-46
2022/07/20 02:19:05;;;;;;;;;;;;;;;;;;2132378;27;20416;-45
2022/07/20 02:20:06;;;;;;;;;;;;;;;;;;2132170;27;19988;-46
2022/07/20 02:21:07;;;;;;;;;;;;;;;;;;2131890;27;19927;-46
2022/07/20 02:22:08;;;;;;;;;;;;;;;;;;2132096;27;19961;-45
2022/07/20 02:23:09;;;;;;;;;;;;;;;;;;2134243;27;19931;-45
2022/07/20 02:24:09;;;;;;;;;;;;;;;;;;2140792;27;19923;-45
2022/07/20 02:25:10;;;;;;;;;;;;;;;;;;2140768;27;19922;-45
2022/07/20 02:26:11;;;;;;;;;;;;;;;;;;2140585;27;19923;-45
2022/07/20 02:27:12;;;;;;;;;;;;;;;;;;2141157;27;20002;-46
2022/07/20 02:28:13;;;;;;;;;;;;;;;;;;2140748;27;19933;-45
2022/07/20 02:29:14;;;;;;;;;;;;;;;;;;2140563;27;20447;-44
2022/07/20 02:30:15;;;;;;;;;;;;;;;;;;2140634;27;19973;-44
2022/07/20 02:31:18;;;;;;;;;;;;;;;;;;2141087;27;19927;-46
2022/07/20 02:32:19;;;;;;;;;;;;;;;;;;2140748;27;20367;-45
2022/07/20 02:33:20;;;;;;;;;;;;;;;;;;2140808;27;19922;-45
2022/07/20 02:34:20;;;;;;;;;;;;;;;;;;2140452;27;19922;-46
2022/07/20 02:35:21;;;;;;;;;;;;;;;;;;2140617;27;19922;-45
2022/07/20 02:36:22;;;;;;;;;;;;;;;;;;2140359;27;20017;-45
2022/07/20 02:37:23;;;;;;;;;;;;;;;;;;2140659;27;20015;-45
2022/07/20 02:38:24;;;;;;;;;;;;;;;;;;2140627;27;20013;-48
2022/07/20 02:39:25;;;;;;;;;;;;;;;;;;2140458;27;20009;-45
2022/07/20 02:40:26;;;;;;;;;;;;;;;;;;2140609;27;20010;-45
2022/07/20 02:41:27;;;;;;;;;;;;;;;;;;2140494;27;19923;-45
2022/07/20 02:42:27;;;;;;;;;;;;;;;;;;2140696;27;19922;-46
2022/07/20 02:43:28;;;;;;;;;;;;;;;;;;2140458;27;19923;-45
2022/07/20 02:44:29;;;;;;;;;;;;;;;;;;2140628;27;19954;-46
2022/07/20 02:45:30;;;;;;;;;;;;;;;;;;2140359;27;20001;-46
2022/07/20 02:46:31;;;;;;;;;;;;;;;;;;2140506;27;19950;-46
2022/07/20 02:47:32;;;;;;;;;;;;;;;;;;2141013;27;19922;-44
2022/07/20 02:48:33;;;;;;;;;;;;;;;;;;2140403;27;20323;-46
2022/07/20 02:49:34;;;;;;;;;;;;;;;;;;2140804;27;19982;-46
2022/07/20 02:50:36;;;;;;;;;;;;;;;;;;2140499;27;20005;-45
2022/07/20 02:51:37;;;;;;;;;;;;;;;;;;2140658;27;19969;-46
2022/07/20 02:52:38;;;;;;;;;;;;;;;;;;2140364;27;19962;-46
2022/07/20 02:53:39;;;;;;;;;;;;;;;;;;2140621;27;19969;-47
2022/07/20 02:54:40;;;;;;;;;;;;;;;;;;2140336;27;20014;-46
2022/07/20 02:55:41;;;;;;;;;;;;;;;;;;2140579;27;19922;-46
2022/07/20 02:56:42;;;;;;;;;;;;;;;;;;2140378;27;19923;-45
2022/07/20 02:57:43;;;;;;;;;;;;;;;;;;2141032;27;19923;-45
2022/07/20 02:58:43;;;;;;;;;;;;;;;;;;2140488;27;20018;-45
2022/07/20 02:59:44;;;;;;;;;;;;;;;;;;2140563;27;19929;-46
2022/07/20 03:00:45;;;;;;;;;;;;;;;;;;2140797;27;20010;-46
2022/07/20 03:01:46;;;;;;;;;;;;;;;;;;2140270;27;20268;-45
2022/07/20 03:02:47;;;;;;;;;;;;;;;;;;2140404;27;20406;-46
2022/07/20 03:03:48;;;;;;;;;;;;;;;;;;2140571;27;19922;-45
2022/07/20 03:04:49;;;;;;;;;;;;;;;;;;2140394;27;19923;-45
2022/07/20 03:05:50;;;;;;;;;;;;;;;;;;2140466;27;19966;-44
2022/07/20 03:06:51;;;;;;;;;;;;;;;;;;2140466;27;20022;-44
2022/07/20 03:07:52;;;;;;;;;;;;;;;;;;2140489;27;20298;-45
2022/07/20 03:08:53;;;;;;;;;;;;;;;;;;2140150;27;19922;-46
2022/07/20 03:09:54;;;;;;;;;;;;;;;;;;2140054;27;19923;-46
2022/07/20 03:10:55;;;;;;;;;;;;;;;;;;2140320;27;19962;-47
2022/07/20 03:11:56;;;;;;;;;;;;;;;;;;2131689;27;19927;-45
2022/07/20 03:12:57;;;;;;;;;;;;;;;;;;2131555;27;19923;-45
2022/07/20 03:13:57;;;;;;;;;;;;;;;;;;2131805;27;20075;-45
2022/07/20 03:14:59;;;;;;;;;;;;;;;;;;2131763;27;19971;-46
2022/07/20 03:15:59;;;;;;;;;;;;;;;;;;2131696;27;19923;-45
2022/07/20 03:17:00;;;;;;;;;;;;;;;;;;2131876;27;20393;-46
2022/07/20 03:18:01;;;;;;;;;;;;;;;;;;2131695;27;19946;-45
2022/07/20 03:19:02;;;;;;;;;;;;;;;;;;2131724;27;19941;-45
2022/07/20 03:20:03;;;;;;;;;;;;;;;;;;2139482;27;20410;-45
2022/07/20 03:21:04;;;;;;;;;;;;;;;;;;2140278;27;19962;-46
2022/07/20 03:22:05;;;;;;;;;;;;;;;;;;2140207;27;19961;-45
2022/07/20 03:23:06;;;;;;;;;;;;;;;;;;2140345;27;19927;-45
2022/07/20 03:24:07;;;;;;;;;;;;;;;;;;2140433;27;20129;-47
2022/07/20 03:25:08;;;;;;;;;;;;;;;;;;2140313;27;20391;-47
2022/07/20 03:26:08;;;;;;;;;;;;;;;;;;2140347;27;20467;-45
2022/07/20 03:27:09;;;;;;;;;;;;;;;;;;2140365;27;20130;-45
2022/07/20 03:28:10;;;;;;;;;;;;;;;;;;2140394;27;20015;-45
2022/07/20 03:29:11;;;;;;;;;;;;;;;;;;2140415;27;20276;-45
2022/07/20 03:30:13;;;;;;;;;;;;;;;;;;2140381;27;19961;-45
2022/07/20 03:31:14;;;;;;;;;;;;;;;;;;2140081;27;20009;-45
2022/07/20 03:32:15;;;;;;;;;;;;;;;;;;2140248;27;20287;-46
2022/07/20 03:33:16;;;;;;;;;;;;;;;;;;2140260;27;19927;-45
2022/07/20 03:34:17;;;;;;;;;;;;;;;;;;2140616;27;20404;-44
2022/07/20 03:35:18;;;;;;;;;;;;;;;;;;2140372;27;19923;-44
2022/07/20 03:36:19;;;;;;;;;;;;;;;;;;2140266;27;20014;-45
2022/07/20 03:37:19;;;;;;;;;;;;;;;;;;2140217;27;19977;-45
2022/07/20 03:38:20;;;;;;;;;;;;;;;;;;2140387;27;19923;-46
2022/07/20 03:39:21;;;;;;;;;;;;;;;;;;2140340;27;19948;-45
2022/07/20 03:40:22;;;;;;;;;;;;;;;;;;2140117;27;19948;-47
2022/07/20 03:41:23;;;;;;;;;;;;;;;;;;2140085;27;19970;-46
2022/07/20 03:42:24;;;;;;;;;;;;;;;;;;2140151;27;19927;-46
2022/07/20 03:43:25;;;;;;;;;;;;;;;;;;2140096;27;20640;-46
2022/07/20 03:44:26;;;;;;;;;;;;;;;;;;2140184;27;19927;-45
2022/07/20 03:45:27;;;;;;;;;;;;;;;;;;2140400;27;20337;-46
2022/07/20 03:46:29;;;;;;;;;;;;;;;;;;2140233;27;19922;-46
2022/07/20 03:47:29;;;;;;;;;;;;;;;;;;2140214;27;19923;-45
2022/07/20 03:48:30;;;;;;;;;;;;;;;;;;2140234;27;19923;-45
2022/07/20 03:49:31;;;;;;;;;;;;;;;;;;2140144;27;20017;-44
2022/07/20 03:50:32;;;;;;;;;;;;;;;;;;2140261;27;20076;-45
2022/07/20 03:51:33;;;;;;;;;;;;;;;;;;2140007;27;19983;-46
2022/07/20 03:52:34;;;;;;;;;;;;;;;;;;2140238;27;19969;-46
2022/07/20 03:53:34;;;;;;;;;;;;;;;;;;2140094;27;19926;-48
2022/07/20 03:54:41;;;;;;;;;;;;;;;;;;2140112;27;19955;-45
2022/07/20 03:55:41;;;;;;;;;;;;;;;;;;2140044;27;20456;-45
2022/07/20 03:56:42;;;;;;;;;;;;;;;;;;2140071;27;19976;-45
2022/07/20 03:57:43;;;;;;;;;;;;;;;;;;2140005;27;20276;-46
2022/07/20 03:58:44;;;;;;;;;;;;;;;;;;2140123;27;19930;-45
2022/07/20 03:59:45;;;;;;;;;;;;;;;;;;2140160;27;20003;-45
2022/07/20 04:00:46;;;;;;;;;;;;;;;;;;2140106;27;20358;-45
2022/07/20 04:01:47;;;;;;;;;;;;;;;;;;2140202;27;20397;-47
2022/07/20 04:02:48;;;;;;;;;;;;;;;;;;2140062;27;19926;-46
2022/07/20 04:03:49;;;;;;;;;;;;;;;;;;2140235;27;19958;-45
2022/07/20 04:04:50;;;;;;;;;;;;;;;;;;2140209;27;19923;-47
2022/07/20 04:05:50;;;;;;;;;;;;;;;;;;2140372;27;19954;-46
2022/07/20 04:06:51;;;;;;;;;;;;;;;;;;2139954;27;20022;-46
2022/07/20 04:07:52;;;;;;;;;;;;;;;;;;2140062;27;19930;-45
2022/07/20 04:08:53;;;;;;;;;;;;;;;;;;2139960;27;19960;-46
2022/07/20 04:09:54;;;;;;;;;;;;;;;;;;2139963;27;19958;-45
2022/07/20 04:10:55;;;;;;;;;;;;;;;;;;2140024;27;19923;-45
2022/07/20 04:11:56;;;;;;;;;;;;;;;;;;2131266;27;19926;-45
2022/07/20 04:12:57;;;;;;;;;;;;;;;;;;2131528;27;19923;-46
2022/07/20 04:13:58;;;;;;;;;;;;;;;;;;2131385;27;19954;-47
2022/07/20 04:14:59;;;;;;;;;;;;;;;;;;2131476;27;19937;-46
2022/07/20 04:15:59;;;;;;;;;;;;;;;;;;2136340;27;20348;-47
2022/07/20 04:17:00;;;;;;;;;;;;;;;;;;2140068;27;19943;-46
2022/07/20 04:18:02;;;;;;;;;;;;;;;;;;2139991;27;19948;-46
2022/07/20 04:19:02;;;;;;;;;;;;;;;;;;2140114;27;20005;-46
2022/07/20 04:20:04;;;;;;;;;;;;;;;;;;2140136;27;19927;-46
2022/07/20 04:21:05;;;;;;;;;;;;;;;;;;2140095;27;20005;-47
2022/07/20 04:22:06;;;;;;;;;;;;;;;;;;2141766;27;20228;-46
2022/07/20 04:23:07;;;;;;;;;;;;;;;;;;2141590;27;19967;-45
2022/07/20 04:24:08;;;;;;;;;;;;;;;;;;2141449;27;19980;-45
2022/07/20 04:25:09;;;;;;;;;;;;;;;;;;2141616;27;20071;-47
2022/07/20 04:26:09;;;;;;;;;;;;;;;;;;2141412;27;19967;-46
2022/07/20 04:27:11;;;;;;;;;;;;;;;;;;2141442;27;20221;-46
2022/07/20 04:28:11;;;;;;;;;;;;;;;;;;2141359;27;19962;-45
2022/07/20 04:29:12;;;;;;;;;;;;;;;;;;2141285;27;19966;-47
2022/07/20 04:30:13;;;;;;;;;;;;;;;;;;2141419;27;20497;-47
2022/07/20 04:31:14;;;;;;;;;;;;;;;;;;2141464;27;20005;-46
2022/07/20 04:32:16;;;;;;;;;;;;;;;;;;2141564;27;19969;-45
2022/07/20 04:33:18;;;;;;;;;;;;;;;;;;2141533;27;20399;-45
2022/07/20 04:34:19;;;;;;;;;;;;;;;;;;2141283;27;20018;-45
2022/07/20 04:35:20;;;;;;;;;;;;;;;;;;2141366;27;19923;-45
2022/07/20 04:36:21;;;;;;;;;;;;;;;;;;2141303;27;19962;-45
2022/07/20 04:37:23;;;;;;;;;;;;;;;;;;2141632;27;20021;-47
2022/07/20 04:38:24;;;;;;;;;;;;;;;;;;2141395;27;20013;-44
2022/07/20 04:39:26;;;;;;;;;;;;;;;;;;2141584;27;20398;-47
2022/07/20 04:40:27;;;;;;;;;;;;;;;;;;2141396;27;19977;-47
2022/07/20 04:41:31;;;;;;;;;;;;;;;;;;2141441;27;19923;-47
2022/07/20 04:42:32;;;;;;;;;;;;;;;;;;2141344;27;19970;-48
2022/07/20 04:43:33;;;;;;;;;;;;;;;;;;2141476;27;19922;-46
2022/07/20 04:44:34;;;;;;;;;;;;;;;;;;2141606;27;19954;-46
2022/07/20 04:45:35;;;;;;;;;;;;;;;;;;2141491;27;20244;-44
2022/07/20 04:46:36;;;;;;;;;;;;;;;;;;2141931;27;20541;-45
2022/07/20 04:47:37;;;;;;;;;;;;;;;;;;2141306;27;20371;-46
2022/07/20 04:48:38;;;;;;;;;;;;;;;;;;2141545;27;19923;-45
2022/07/20 04:49:39;;;;;;;;;;;;;;;;;;2141327;27;19926;-44
2022/07/20 04:50:40;;;;;;;;;;;;;;;;;;2141325;27;19929;-44
2022/07/20 04:51:42;;;;;;;;;;;;;;;;;;2141316;27;19923;-45
2022/07/20 04:52:42;;;;;;;;;;;;;;;;;;2141624;27;20240;-44
2022/07/20 04:53:43;;;;;;;;;;;;;;;;;;2141254;27;20017;-44
2022/07/20 04:54:44;;;;;;;;;;;;;;;;;;2141270;27;20272;-44
2022/07/20 04:55:45;;;;;;;;;;;;;;;;;;2141546;27;19990;-45
2022/07/20 04:56:46;;;;;;;;;;;;;;;;;;2141054;27;19963;-44
2022/07/20 04:57:47;;;;;;;;;;;;;;;;;;2141590;27;19923;-46
2022/07/20 04:58:50;;;;;;;;;;;;;;;;;;2141147;27;19975;-44
2022/07/20 04:59:51;;;;;;;;;;;;;;;;;;2141332;27;20013;-46
2022/07/20 05:00:52;;;;;;;;;;;;;;;;;;2141652;27;19929;-46
2022/07/20 05:01:53;;;;;;;;;;;;;;;;;;2141589;27;20070;-47
2022/07/20 05:02:54;;;;;;;;;;;;;;;;;;2141072;27;20293;-45
2022/07/20 05:03:55;;;;;;;;;;;;;;;;;;2141200;27;19947;-46
2022/07/20 05:04:56;;;;;;;;;;;;;;;;;;2141278;27;19923;-45
2022/07/20 05:05:57;;;;;;;;;;;;;;;;;;2141294;27;20295;-44
2022/07/20 05:06:58;;;;;;;;;;;;;;;;;;2141267;27;19987;-44
2022/07/20 05:07:59;;;;;;;;;;;;;;;;;;2141111;27;20407;-44
2022/07/20 05:09:00;;;;;;;;;;;;;;;;;;2141152;27;19947;-44
2022/07/20 05:10:00;;;;;;;;;;;;;;;;;;2141464;27;19954;-46
2022/07/20 05:11:01;;;;;;;;;;;;;;;;;;2139917;27;20287;-46
2022/07/20 05:12:07;;;;;;;;;;;;;;;;;;2136560;27;19923;-46
2022/07/20 05:13:08;;;;;;;;;;;;;;;;;;2141163;27;19962;-46
2022/07/20 05:14:09;;;;;;;;;;;;;;;;;;2141219;27;20401;-46
2022/07/20 05:15:10;;;;;;;;;;;;;;;;;;2141263;27;20005;-46
2022/07/20 05:16:11;;;;;;;;;;;;;;;;;;2141023;27;20021;-46
2022/07/20 05:17:12;;;;;;;;;;;;;;;;;;2141102;27;19927;-46
2022/07/20 05:18:13;;;;;;;;;;;;;;;;;;2141189;27;20051;-46
2022/07/20 05:19:14;;;;;;;;;;;;;;;;;;2141156;27;20331;-46
2022/07/20 05:20:15;;;;;;;;;;;;;;;;;;2141272;27;20447;-47
2022/07/20 05:21:16;;;;;;;;;;;;;;;;;;2141174;27;19968;-47
2022/07/20 05:22:16;;;;;;;;;;;;;;;;;;2141099;27;19930;-45
2022/07/20 05:23:18;;;;;;;;;;;;;;;;;;2141691;27;19923;-45
2022/07/20 05:24:18;;;;;;;;;;;;;;;;;;2141089;27;19930;-43
2022/07/20 05:25:19;;;;;;;;;;;;;;;;;;2141258;27;20410;-46
2022/07/20 05:26:23;;;;;;;;;;;;;;;;;;2141601;27;20391;-44
2022/07/20 05:27:24;;;;;;;;;;;;;;;;;;2141268;27;19934;-46
2022/07/20 05:28:25;;;;;;;;;;;;;;;;;;2141306;27;20025;-47
2022/07/20 05:29:26;;;;;;;;;;;;;;;;;;2141003;27;20283;-46
2022/07/20 05:30:26;;;;;;;;;;;;;;;;;;2140968;27;20363;-46
2022/07/20 05:31:27;;;;;;;;;;;;;;;;;;2141097;27;19930;-46
2022/07/20 05:32:28;;;;;;;;;;;;;;;;;;2140554;27;19930;-47
2022/07/20 05:33:33;;;;;;;;;;;;;;;;;;2140928;27;19982;-47
2022/07/20 05:34:33;;;;;;;;;;;;;;;;;;2141223;27;20037;-46
2022/07/20 05:35:34;;;;;;;;;;;;;;;;;;2141080;27;19968;-47
2022/07/20 05:36:35;;;;;;;;;;;;;;;;;;2141485;27;20250;-47
2022/07/20 05:37:36;;;;;;;;;;;;;;;;;;2140970;27;20447;-47
2022/07/20 05:38:37;;;;;;;;;;;;;;;;;;2141294;27;19999;-47
2022/07/20 05:39:40;;;;;;;;;;;;;;;;;;2140988;27;20379;-47
2022/07/20 05:40:41;;;;;;;;;;;;;;;;;;2141408;27;19946;-43
2022/07/20 05:41:42;;;;;;;;;;;;;;;;;;2140673;27;20021;-47
2022/07/20 05:42:43;;;;;;;;;;;;;;;;;;2141303;27;19958;-44
2022/07/20 05:43:44;;;;;;;;;;;;;;;;;;2140977;27;19954;-43
2022/07/20 05:44:45;;;;;;;;;;;;;;;;;;2141402;27;20243;-44
2022/07/20 05:45:45;;;;;;;;;;;;;;;;;;2141280;27;19922;-44
2022/07/20 05:46:48;;;;;;;;;;;;;;;;;;2140852;27;19962;-44
2022/07/20 05:47:48;;;;;;;;;;;;;;;;;;2141065;27;19929;-47
2022/07/20 05:48:49;;;;;;;;;;;;;;;;;;2140885;27;19922;-46
2022/07/20 05:49:51;;;;;;;;;;;;;;;;;;2141296;27;19977;-44
2022/07/20 05:50:52;;;;;;;;;;;;;;;;;;2141002;27;19985;-45
2022/07/20 05:51:52;;;;;;;;;;;;;;;;;;2141280;27;20015;-44
2022/07/20 05:52:53;;;;;;;;;;;;;;;;;;2140837;27;20379;-43
2022/07/20 05:53:54;;;;;;;;;;;;;;;;;;2141967;27;19975;-45
2022/07/20 05:54:55;;;;;;;;;;;;;;;;;;2140715;27;20419;-43
2022/07/20 05:55:56;;;;;;;;;;;;;;;;;;2142120;27;19935;-46
2022/07/20 05:56:57;;;;;;;;;;;;;;;;;;2141429;27;20294;-44
2022/07/20 05:57:58;;;;;;;;;;;;;;;;;;2140768;27;19970;-46
2022/07/20 05:58:59;;;;;;;;;;;;;;;;;;2140815;27;19969;-44
2022/07/20 06:00:00;;;;;;;;;;;;;;;;;;2140809;27;20347;-43
2022/07/20 06:01:00;;;;;;;;;;;;;;;;;;2140859;27;20432;-43
2022/07/20 06:02:02;;;;;;;;;;;;;;;;;;2140825;27;19922;-43
2022/07/20 06:03:03;;;;;;;;;;;;;;;;;;2141586;27;19946;-46
2022/07/20 06:04:04;;;;;;;;;;;;;;;;;;2140753;27;20032;-47
2022/07/20 06:05:05;;;;;;;;;;;;;;;;;;2140929;27;19956;-46
2022/07/20 06:06:07;;;;;;;;;;;;;;;;;;2140943;27;19930;-46
2022/07/20 06:07:08;;;;;;;;;;;;;;;;;;2141061;27;19965;-43
2022/07/20 06:08:09;;;;;;;;;;;;;;;;;;2141055;27;19981;-43
2022/07/20 06:09:10;;;;;;;;;;;;;;;;;;2140820;27;20005;-43
2022/07/20 06:10:27;;;;;;;;;;;;;;;;;;2141405;27;19926;-43
2022/07/20 06:11:27;;;;;;;;;;;;;;;;;;2136284;27;20330;-44
2022/07/20 06:12:28;;;;;;;;;;;;;;;;;;2132210;27;19927;-43
2022/07/20 06:13:29;;;;;;;;;;;;;;;;;;2132585;27;19966;-44
2022/07/20 06:14:30;;;;;;;;;;;;;;;;;;2132348;27;19930;-46
2022/07/20 06:15:31;;;;;;;;;;;;;;;;;;2132257;27;20295;-48
2022/07/20 06:16:32;;;;;;;;;;;;;;;;;;2132261;27;19962;-47
2022/07/20 06:17:33;;;;;;;;;;;;;;;;;;2132434;27;20288;-45
2022/07/20 06:18:34;;;;;;;;;;;;;;;;;;2132396;27;19930;-47
2022/07/20 06:19:34;;;;;;;;;;;;;;;;;;2132019;27;19924;-46
2022/07/20 06:20:35;;;;;;;;;;;;;;;;;;2132352;27;19923;-44
2022/07/20 06:21:36;;;;;;;;;;;;;;;;;;2132096;27;19931;-44
2022/07/20 06:22:37;;;;;;;;;;;;;;;;;;2132457;27;19923;-44
2022/07/20 06:23:39;;;;;;;;;;;;;;;;;;2133136;27;19923;-43
2022/07/20 06:24:40;;;;;;;;;;;;;;;;;;2132129;27;19960;-48
2022/07/20 06:25:56;;;;;;;;;;;;;;;;;;2132418;27;19994;-43
2022/07/20 06:26:57;;;;;;;;;;;;;;;;;;2132156;27;20006;-44
2022/07/20 06:28:00;;;;;;;;;;;;;;;;;;2132641;27;19922;-47
2022/07/20 06:29:01;;;;;;;;;;;;;;;;;;2132143;27;20010;-43
2022/07/20 06:30:02;;;;;;;;;;;;;;;;;;2132471;27;20371;-47
2022/07/20 06:31:04;;;;;;;;;;;;;;;;;;2132458;27;19923;-46
2022/07/20 06:32:05;;;;;;;;;;;;;;;;;;2131942;27;19930;-46
2022/07/20 06:33:16;;;;;;;;;;;;;;;;;;2132404;27;19946;-46
2022/07/20 06:34:17;;;;;;;;;;;;;;;;;;2132201;27;20295;-48
2022/07/20 06:35:18;;;;;;;;;;;;;;;;;;2132368;27;19930;-43
2022/07/20 06:36:18;;;;;;;;;;;;;;;;;;2132098;27;20351;-47
2022/07/20 06:37:19;;;;;;;;;;;;;;;;;;2132191;27;19928;-46
2022/07/20 06:38:21;;;;;;;;;;;;;;;;;;2132255;27;20060;-47
2022/07/20 06:39:21;;;;;;;;;;;;;;;;;;2132565;27;20358;-44
2022/07/20 06:40:22;;;;;;;;;;;;;;;;;;2132448;27;19923;-43
2022/07/20 06:41:24;;;;;;;;;;;;;;;;;;2132508;27;19987;-44
2022/07/20 06:42:26;;;;;;;;;;;;;;;;;;2131881;27;20416;-47
2022/07/20 06:43:26;;;;;;;;;;;;;;;;;;2132020;27;20025;-47
2022/07/20 06:44:27;;;;;;;;;;;;;;;;;;2131295;27;19950;-47
2022/07/20 06:45:28;;;;;;;;;;;;;;;;;;2132487;27;19983;-44
2022/07/20 06:46:30;;;;;;;;;;;;;;;;;;2132834;27;19930;-43
2022/07/20 06:47:31;;;;;;;;;;;;;;;;;;2132471;27;20399;-48
2022/07/20 06:48:34;;;;;;;;;;;;;;;;;;2132055;27;20022;-48
2022/07/20 06:49:35;;;;;;;;;;;;;;;;;;2131859;27;20363;-50
2022/07/20 06:50:36;;;;;;;;;;;;;;;;;;2132185;27;19930;-47
2022/07/20 06:51:37;;;;;;;;;;;;;;;;;;2131829;27;19927;-51
2022/07/20 06:52:38;;;;;;;;;;;;;;;;;;2132507;27;19923;-48
2022/07/20 06:53:38;;;;;;;;;;;;;;;;;;2132413;27;20002;-43
2022/07/20 06:54:39;;;;;;;;;;;;;;;;;;2131972;27;19923;-44
2022/07/20 06:55:40;;;;;;;;;;;;;;;;;;2132233;27;20023;-44
2022/07/20 06:56:41;;;;;;;;;;;;;;;;;;2132081;27;20014;-50
2022/07/20 06:57:44;;;;;;;;;;;;;;;;;;2132742;27;20364;-43
2022/07/20 06:58:45;;;;;;;;;;;;;;;;;;2131957;27;20009;-45
2022/07/20 06:59:46;;;;;;;;;;;;;;;;;;2132883;27;19923;-46
2022/07/20 07:00:48;;;;;;;;;;;;;;;;;;2132026;27;20018;-48
2022/07/20 07:01:49;;;;;;;;;;;;;;;;;;2133007;27;19923;-49